Hawick, Minnesota
Current Conditions -  °F | °C
As of 7:14 PM on Tuesday 27 Jan 2015 (Local Time) from KPEX Reporting Station
Overcast Overcast  
Wind Chill: 23°   Ceiling: 1200
Heat Index: 31°   Visibility: 10mi
Dew Point: 28°   Wind: 8mph
Humidity: 90%   Direction: 110°ESE
Pressure: 30.07"   Gusts: NA
Location:  45.35°N, 94.83°W
Report Text: KPEX 280114Z AUTO 11007KT 10SM OVC012 M01/M02 A3007 RMK AO2 T10081022
Loading
Personal Weather Stations






























Interactive Weather Map New forecast layout! Learn more

10-Day Weather Forecast

Advertisements
Track Severe Weather on mobile